Latest Weather Observations for Albion Park

IDN60801

Issued at 7:34 am EDT Saturday 20 December 2014 (issued every 30 minutes, with the page automatically refreshed every 10 minutes)

About weather observations | Map of weather stations | Latest weather observations for NSW | Other Formats
Station Details ID: 068241 Name: WOLLONGONG AIRPORT Lat: -34.56 Lon: 150.79 Height: 8.0 m
Data from the previous 72 hours. | See also: Recent months at Albion Park
Date/Time
EDT
Temp
°C
App
Temp
°C
Dew
Point
Rel
Hum
%
Delta-T
°C
Wind Press
QNH
hPa
Press
MSL
hPa
Rain
since 9 am
mm
Dir
 
Spd
km/h
Gust
km/h
Spd
kts
Gust
kts
20/07:30am 16.9 16.5 13.0 78 2.2 W 7 9 4 5 1018.4 1018.4 0.0
20/07:00am 15.4 14.7 13.1 86 1.3 WSW 9 11 5 6 1018.1 1018.1 0.0
20/06:30am 15.4 14.7 13.2 87 1.2 WNW 9 9 5 5 1017.9 1017.9 0.0
20/05:30am 14.7 15.0 13.4 92 0.7 S 4 7 2 4 1017.7 1017.7 0.0
20/05:00am 14.9 14.7 13.1 89 1.0 W 6 7 3 4 1017.6 1017.6 0.0
20/04:30am 15.5 15.5 13.5 88 1.1 SW 6 7 3 4 1017.3 1017.3 0.0
20/04:00am 16.0 16.0 13.5 85 1.4 WSW 6 9 3 5 1017.3 1017.3 0.0
20/03:30am 16.2 16.0 13.7 85 1.4 W 7 9 4 5 1017.5 1017.5 0.0
20/03:00am 16.4 16.2 13.5 83 1.6 WNW 7 9 4 5 1017.7 1017.7 0.0
20/02:30am 16.4 17.2 12.6 78 2.1 CALM 0 0 0 0 1017.9 1017.9 0.0
20/02:00am 16.7 16.4 12.8 78 2.2 SSW 6 7 3 4 1018.0 1018.0 0.0
20/01:30am 16.7 16.4 12.7 77 2.2 SSW 6 7 3 4 1018.3 1018.3 0.0
20/01:00am 16.7 15.8 12.7 77 2.2 S 9 13 5 7 1018.5 1018.5 0.0
20/12:30am 17.0 16.4 12.3 74 2.6 SSE 7 11 4 6 1018.8 1018.8 0.0
20/12:00am 17.3 16.9 13.0 76 2.4 SSW 7 9 4 5 1019.0 1019.0 0.0
 
Date/Time
EDT
Temp
°C
App
Temp
°C
Dew
Point
Rel
Hum
%
Delta-T
°C
Wind Press
QNH
hPa
Press
MSL
hPa
Rain
since 9 am
mm
Dir
 
Spd
km/h
Gust
km/h
Spd
kts
Gust
kts
19/11:30pm 17.7 17.6 13.2 75 2.5 WSW 6 7 3 4 1019.2 1019.2 0.0
19/11:00pm 17.7 18.4 12.2 70 3.0 CALM 0 6 0 3 1019.3 1019.3 0.0
19/10:30pm 17.7 17.3 12.4 71 2.9 SSE 6 9 3 5 1018.9 1018.9 0.0
19/10:00pm 18.0 17.0 12.2 69 3.2 S 9 13 5 7 1018.6 1018.6 0.0
19/09:30pm 18.2 17.5 12.0 67 3.4 S 7 11 4 6 1018.3 1018.3 0.0
19/09:00pm 18.1 16.8 11.2 64 3.7 SSE 9 13 5 7 1018.0 1018.0 0.0
19/08:30pm 18.3 17.0 11.4 64 3.8 SSE 9 15 5 8 1017.7 1017.7 0.0
19/08:00pm 18.5 16.9 11.6 64 3.8 SSE 11 15 6 8 1017.2 1017.2 0.0
19/07:30pm 18.6 17.3 11.2 62 4.0 SSE 9 19 5 10 1016.7 1016.7 0.0
19/07:00pm 18.7 15.7 10.5 59 4.4 SSE 17 20 9 11 1016.0 1016.0 0.0
19/06:30pm 19.1 16.8 10.6 58 4.6 SSE 13 20 7 11 1015.4 1015.4 0.0
19/06:00pm 19.3 16.6 10.3 56 4.8 SE 15 26 8 14 1015.0 1015.0 0.0
19/05:30pm 19.4 16.1 9.6 53 5.2 SE 17 24 9 13 1014.6 1014.6 0.0
19/05:00pm 19.3 16.2 10.3 56 4.8 SE 17 28 9 15 1014.3 1014.3 0.0
19/04:30pm 19.2 16.0 9.9 55 5.0 ESE 17 24 9 13 1014.1 1014.1 0.0
19/04:00pm 19.4 15.5 8.7 50 5.6 SE 19 30 10 16 1014.0 1014.0 0.0
19/03:30pm 19.6 15.7 9.5 52 5.4 ESE 20 30 11 16 1013.9 1013.9 0.0
19/03:00pm 19.4 15.7 9.6 53 5.2 SE 19 30 10 16 1013.9 1013.9 0.0
19/02:30pm 20.7 17.4 10.8 53 5.4 SE 19 28 10 15 1013.7 1013.7 0.0
19/02:00pm 19.8 16.6 10.0 53 5.3 SE 17 26 9 14 1013.6 1013.6 0.0
19/01:30pm 19.7 16.1 9.9 53 5.2 ESE 19 30 10 16 1013.6 1013.6 0.0
19/01:00pm 19.9 16.2 10.3 54 5.2 ESE 20 33 11 18 1013.5 1013.5 0.0
19/12:30pm 19.9 16.5 10.6 55 5.0 SSE 19 28 10 15 1013.5 1013.5 0.0
19/12:00pm 20.4 16.3 10.2 52 5.5 SE 22 32 12 17 1013.5 1013.5 0.0
19/11:30am 20.9 17.1 11.0 53 5.4 SSE 22 39 12 21 1013.3 1013.3 0.0
19/11:00am 19.5 14.5 11.0 58 4.6 SSE 28 39 15 21 1013.5 1013.5 0.0
19/10:30am 20.2 16.2 11.7 58 4.7 SSE 24 35 13 19 1013.2 1013.2 0.0
19/10:00am 19.7 15.5 11.2 58 4.7 SE 24 35 13 19 1013.4 1013.4 0.0
19/09:30am 20.1 17.5 13.1 64 4.0 SSE 19 30 10 16 1013.1 1013.1 0.0
19/09:00am 19.4 16.5 12.2 63 4.0 SSE 19 30 10 16 1013.0 1013.0 0.0
19/08:30am 20.2 18.4 13.2 64 4.0 SSE 15 24 8 13 1012.8 1012.8 0.0
19/08:00am 19.2 17.9 13.6 70 3.2 S 13 20 7 11 1012.7 1012.7 0.0
19/07:30am 18.9 17.5 13.3 70 3.2 SSE 13 20 7 11 1012.3 1012.3 0.0
19/07:00am 18.0 17.3 13.1 73 2.8 S 9 13 5 7 1012.0 1012.0 0.0
19/06:30am 16.8 16.4 13.1 79 2.1 S 7 9 4 5 1011.5 1011.5 0.0
19/06:00am 16.3 15.4 12.7 79 2.0 S 9 11 5 6 1011.2 1011.2 0.0
19/05:30am 16.6 15.4 12.9 79 2.1 S 11 17 6 9 1010.8 1010.8 0.0
19/05:00am 17.1 15.3 13.2 78 2.2 SSE 15 32 8 17 1010.5 1010.5 0.0
19/04:55am 17.2 15.8 13.3 78 2.2 S 13 32 7 17 1010.4 1010.4 0.0
19/04:30am 17.6 15.7 14.1 80 2.0 S 17 24 9 13 1010.0 1010.0 0.0
19/04:00am 18.1 17.2 14.8 81 1.9 S 13 22 7 12 1009.5 1009.5 0.0
19/03:47am 18.0 17.0 14.7 81 1.9 SW 13 26 7 14 1009.4 1009.4 0.0
19/03:30am 18.0 15.7 14.7 81 1.9 SSW 20 32 11 17 1008.9 1008.9 0.0
19/03:01am 18.6 13.8 15.5 82 1.8 S 35 54 19 29 1007.9 1007.9 0.0
19/03:00am 18.6 13.8 15.5 82 1.8 S 35 50 19 27 1007.9 1007.9 0.0
19/02:58am 18.7 13.9 15.6 82 1.8 S 35 54 19 29 1007.8 1007.8 0.0
19/02:43am 19.4 16.3 14.6 74 2.8 WSW 24 44 13 24 1007.6 1007.6 0.0
19/02:30am 17.6 15.3 14.1 80 2.0 W 19 22 10 12 1006.5 1006.5 0.0
19/02:00am 18.4 16.9 16.2 87 1.3 W 19 20 10 11 1006.3 1006.3 0.0
19/01:30am 18.5 17.7 17.2 92 0.8 WSW 17 19 9 10 1006.2 1006.2 0.0
19/01:00am 18.6 18.9 17.8 95 0.5 W 13 17 7 9 1006.1 1006.1 0.0
19/12:30am 18.6 19.7 18.1 97 0.3 W 9 13 5 7 1006.2 1006.2 0.0
19/12:00am 19.1 20.1 18.6 97 0.3 W 11 13 6 7 1006.1 1006.1 0.0
 
Date/Time
EDT
Temp
°C
App
Temp
°C
Dew
Point
Rel
Hum
%
Delta-T
°C
Wind Press
QNH
hPa
Press
MSL
hPa
Rain
since 9 am
mm
Dir
 
Spd
km/h
Gust
km/h
Spd
kts
Gust
kts
18/11:30pm 19.3 21.0 18.6 96 0.4 W 7 11 4 6 1006.2 1006.2 0.0
18/11:00pm 19.3 20.7 18.6 96 0.4 W 9 11 5 6 1006.2 1006.2 0.0
18/10:30pm 19.8 21.1 19.3 97 0.3 W 11 13 6 7 1006.3 1006.3 0.0
18/10:00pm 19.8 21.3 19.0 95 0.5 WSW 9 11 5 6 1006.5 1006.5 0.0
18/09:30pm 20.7 22.9 19.7 94 0.6 NW 7 9 4 5 1006.4 1006.4 0.0
18/09:00pm 21.7 24.8 20.2 91 1.0 ENE 4 7 2 4 1006.2 1006.2 0.0
18/08:30pm 22.3 24.2 20.6 90 1.1 NE 11 13 6 7 1006.0 1006.0 0.0
18/08:00pm 22.7 25.0 20.6 88 1.4 NE 9 19 5 10 1005.7 1005.7 0.0
18/07:30pm 22.9 24.2 20.2 85 1.7 NE 13 20 7 11 1005.3 1005.3 0.0
18/07:00pm 23.4 23.9 20.1 82 2.1 NE 17 24 9 13 1005.0 1005.0 0.0
18/06:30pm 23.8 23.9 19.9 79 2.5 NNE 19 26 10 14 1004.5 1004.5 0.0
18/06:00pm 24.3 24.5 20.2 78 2.7 NE 19 26 10 14 1004.2 1004.2 0.0
18/05:30pm 24.3 24.3 19.8 76 2.9 NNE 19 30 10 16 1004.1 1004.1 0.0
18/05:00pm 24.3 23.7 19.8 76 2.9 NE 22 30 12 16 1004.3 1004.3 0.0
18/04:30pm 23.6 22.5 19.5 78 2.6 NE 24 32 13 17 1004.5 1004.5 0.0
18/04:00pm 23.6 22.5 19.5 78 2.6 NE 24 32 13 17 1004.9 1004.9 0.0
18/03:30pm 23.5 21.5 19.2 77 2.7 NE 28 35 15 19 1005.2 1005.2 0.0
18/03:00pm 23.3 22.0 19.0 77 2.7 NE 24 35 13 19 1005.4 1005.4 0.0
18/02:30pm 24.5 22.8 19.8 75 3.0 ENE 28 35 15 19 1005.8 1005.8 0.0
18/02:00pm 23.7 21.5 18.8 74 3.1 NE 28 35 15 19 1006.0 1006.0 0.0
18/01:30pm 23.9 22.5 18.8 73 3.2 NE 24 30 13 16 1006.5 1006.5 0.0
18/01:00pm 23.4 22.2 18.5 74 3.1 NE 22 26 12 14 1006.9 1006.9 0.0
18/12:30pm 22.7 22.3 18.0 75 2.9 NE 17 20 9 11 1007.5 1007.5 0.0
18/12:00pm 22.5 21.4 17.8 75 2.9 NE 20 24 11 13 1007.8 1007.8 0.0
18/11:30am 22.4 21.5 16.9 71 3.4 NE 17 20 9 11 1008.2 1008.2 0.0
18/11:13am 22.1 23.0 16.6 71 3.3 NE 7 13 4 7 1008.5 1008.5 0.0
18/11:00am 22.4 23.0 16.9 71 3.4 NE 9 15 5 8 1008.7 1008.7 0.0
18/10:30am 21.7 22.0 16.9 74 2.9 NW 11 15 6 8 1009.2 1009.2 0.0
18/10:00am 21.0 21.0 16.2 74 2.9 NW 11 15 6 8 1009.8 1009.8 0.0
18/09:30am 20.7 20.3 16.3 76 2.6 NNW 13 17 7 9 1009.9 1009.9 0.0
18/09:00am 20.1 20.0 15.9 77 2.5 NNW 11 17 6 9 1009.9 1009.9 0.0
18/08:49am 20.0 19.0 15.6 76 2.6 NNW 15 22 8 12 1010.0 1010.0 0.0
18/08:30am 19.9 18.9 15.5 76 2.6 NNW 15 19 8 10 1010.2 1010.2 0.0
18/08:00am 19.1 19.4 16.1 83 1.8 WNW 9 11 5 6 1010.6 1010.6 0.0
18/07:30am 18.1 18.2 15.5 85 1.5 W 9 13 5 7 1010.7 1010.7 0.0
18/07:00am 17.4 17.5 15.6 89 1.1 WSW 9 11 5 6 1010.2 1010.2 0.0
18/06:30am 17.1 17.5 15.4 90 1.0 W 7 9 4 5 1009.7 1009.7 0.0
18/06:00am 16.9 18.7 15.4 91 0.9 CALM 0 0 0 0 1009.5 1009.5 0.0
18/05:30am 16.7 18.0 15.2 91 0.9 W 2 7 1 4 1009.4 1009.4 0.0
18/05:00am 16.6 17.0 15.3 92 0.8 WSW 7 11 4 6 1009.3 1009.3 0.0
18/04:30am 16.7 17.1 15.4 92 0.8 WSW 7 7 4 4 1009.3 1009.3 0.0
18/04:00am 16.8 18.5 15.3 91 0.9 CALM 0 4 0 2 1009.3 1009.3 0.0
18/03:30am 16.5 17.1 15.2 92 0.8 WSW 6 7 3 4 1009.6 1009.6 0.0
18/03:00am 16.3 16.7 14.8 91 0.9 W 6 7 3 4 1009.9 1009.9 0.0
18/02:30am 16.4 16.7 14.9 91 0.9 WNW 7 9 4 5 1009.9 1009.9 0.0
18/02:00am 16.3 16.2 15.0 92 0.8 WSW 9 11 5 6 1010.2 1010.2 0.0
18/01:30am 16.1 16.3 14.8 92 0.7 WSW 7 9 4 5 1010.5 1010.5 0.0
18/01:00am 16.0 15.9 14.9 93 0.6 W 9 11 5 6 1010.8 1010.8 0.0
18/12:30am 16.0 15.5 14.9 93 0.6 WSW 11 13 6 7 1011.1 1011.1 0.0
18/12:00am 15.9 15.0 14.8 93 0.6 WSW 13 15 7 8 1011.4 1011.4 0.0
 
Date/Time
EDT
Temp
°C
App
Temp
°C
Dew
Point
Rel
Hum
%
Delta-T
°C
Wind Press
QNH
hPa
Press
MSL
hPa
Rain
since 9 am
mm
Dir
 
Spd
km/h
Gust
km/h
Spd
kts
Gust
kts
17/11:30pm 16.1 15.6 14.8 92 0.7 W 11 15 6 8 1011.7 1011.7 0.0
17/11:00pm 16.4 16.0 15.1 92 0.8 WSW 11 13 6 7 1011.9 1011.9 0.0
17/10:35pm 17.2 17.2 14.3 83 1.7 NE 7 15 4 8 1012.0 1012.0 0.0
17/10:30pm 17.3 16.6 14.2 82 1.8 NE 11 15 6 8 1012.1 1012.1 0.0
17/10:00pm 18.0 17.6 14.1 78 2.2 ENE 9 17 5 9 1012.0 1012.0 0.0
17/09:57pm 18.0 17.5 13.9 77 2.3 ENE 9 17 5 9 1011.9 1011.9 0.0
17/09:30pm 17.5 17.4 13.2 76 2.4 SSE 6 7 3 4 1011.6 1011.6 0.0
17/09:00pm 17.6 16.9 13.1 75 2.5 SSE 9 13 5 7 1011.5 1011.5 0.0
17/08:30pm 17.8 16.3 13.1 74 2.6 E 13 20 7 11 1011.2 1011.2 0.0
17/08:00pm 18.0 17.3 13.1 73 2.8 SE 9 11 5 6 1010.7 1010.7 0.0
17/07:30pm 18.1 16.8 12.5 70 3.1 SSE 11 19 6 10 1010.2 1010.2 0.0
17/07:00pm 18.5 16.9 12.7 69 3.2 SSE 13 20 7 11 1009.8 1009.8 0.0
17/06:30pm 18.9 18.1 12.9 68 3.4 ESE 9 13 5 7 1009.3 1009.3 0.0
17/06:00pm 19.1 17.4 12.6 66 3.6 SE 13 20 7 11 1008.8 1008.8 0.0
17/05:30pm 19.4 18.2 12.9 66 3.7 SE 11 19 6 10 1008.6 1008.6 0.0
17/05:00pm 19.4 17.1 11.7 61 4.3 ESE 15 20 8 11 1008.6 1008.6 0.0
17/04:30pm 20.1 17.9 12.1 60 4.5 ESE 15 28 8 15 1008.5 1008.5 0.0
17/04:00pm 19.9 17.5 11.4 58 4.7 SE 15 20 8 11 1008.6 1008.6 0.0
17/03:30pm 20.0 17.5 11.2 57 4.8 SE 15 22 8 12 1008.5 1008.5 0.0
17/03:00pm 19.7 16.6 10.4 55 5.0 SE 17 26 9 14 1008.6 1008.6 0.0
17/02:30pm 20.0 16.9 11.5 58 4.7 SE 19 30 10 16 1008.5 1008.5 0.0
17/02:00pm 19.5 16.7 11.5 60 4.4 SE 17 30 9 16 1008.4 1008.4 0.0
17/01:30pm 19.4 16.6 11.4 60 4.4 SSE 17 30 9 16 1008.3 1008.3 0.0
17/01:00pm 19.6 16.9 11.6 60 4.4 SSE 17 26 9 14 1008.2 1008.2 0.0
17/12:30pm 19.7 16.4 11.7 60 4.4 SE 20 30 11 16 1008.1 1008.1 0.0
17/12:00pm 20.0 16.8 12.0 60 4.5 SE 20 33 11 18 1008.0 1008.0 0.0
17/11:30am 20.6 17.1 12.1 58 4.8 SSE 22 39 12 21 1007.7 1007.7 0.0
17/11:00am 21.3 17.6 12.7 58 4.9 SSE 24 41 13 22 1007.3 1007.3 0.0
17/10:30am 20.9 17.1 12.3 58 4.8 SSE 24 35 13 19 1007.3 1007.3 0.0
17/10:00am 20.6 17.0 11.8 57 4.9 SSE 22 32 12 17 1007.3 1007.3 0.0
17/09:30am 20.9 17.7 13.1 61 4.4 SSE 22 32 12 17 1007.3 1007.3 0.0
17/09:00am 19.7 16.3 12.5 63 4.0 SSE 22 35 12 19 1007.1 1007.1 0.0
17/08:30am 19.9 16.7 13.1 65 3.9 SSE 22 37 12 20 1006.7 1006.7 0.0
17/08:00am 19.8 15.5 13.3 66 3.7 S 28 41 15 22 1006.5 1006.5 0.0

Other Formats:

Comma delimited format used in spreadsheet applications
http://www.bom.gov.au/fwo/IDN60801/IDN60801.95748.axf

JavaScript Object Notation format (JSON) in row-major order
http://www.bom.gov.au/fwo/IDN60801/IDN60801.95748.json